East Syracuse, New York
Current Conditions -  °F | °C
As of 1:54 AM on Friday 28 Nov 2014 (Local Time) from KSYR Reporting Station
Broken Clouds Broken Clouds  
Wind Chill: 16°   Ceiling: 10000
Heat Index: 25°   Visibility: 10mi
Dew Point: 21°   Wind: 9mph
Humidity: 85%   Direction: 260°W
Pressure: 30.08"   Gusts: NA
Location:  43.07°N, 76.08°W
Report Text: KSYR 280654Z 26008KT 10SM SCT032 BKN100 M04/M06 A3008 RMK AO2 SLP189 T10391061
Loading
Personal Weather Stations






























Interactive Weather Map New forecast layout! Learn more

10-Day Weather Forecast

Advertisements
Track Severe Weather on mobile